createdAt,value
2022-09-27T00:01:29.295Z,14.32
2022-09-27T00:04:00.809Z,9.32
2022-09-27T00:06:33.172Z,8.63
2022-09-27T00:11:36.241Z,14.27
2022-09-27T00:14:07.157Z,8.27
2022-09-27T00:16:40.728Z,9.50
2022-09-27T00:19:16.040Z,8.80
2022-09-27T00:21:47.407Z,7.38
2022-09-27T00:24:19.411Z,8.43
2022-09-27T00:26:51.354Z,9.40
2022-09-27T00:29:22.210Z,6.30
2022-09-27T00:31:51.619Z,9.68
2022-09-27T00:34:23.992Z,9.52
2022-09-27T00:39:23.148Z,8.05
2022-09-27T00:41:54.005Z,8.07
2022-09-27T00:45:04.306Z,6.80
2022-09-27T00:47:43.073Z,7.25
2022-09-27T00:52:01.482Z,7.13
2022-09-27T00:54:34.249Z,7.32
2022-09-27T00:57:05.129Z,7.20
2022-09-27T00:59:41.371Z,7.55
2022-09-27T01:02:11.211Z,8.38
2022-09-27T01:04:42.946Z,8.25
2022-09-27T01:07:13.924Z,6.80
2022-09-27T01:09:43.628Z,7.82
2022-09-27T01:12:27.055Z,7.10
2022-09-27T01:15:18.646Z,8.27
2022-09-27T01:18:04.346Z,7.28
2022-09-27T01:21:23.155Z,7.72
2022-09-27T01:25:01.540Z,9.55
2022-09-27T01:28:15.226Z,8.50
2022-09-27T01:30:50.572Z,9.25
2022-09-27T01:33:33.248Z,10.20
2022-09-27T01:38:50.731Z,7.10
2022-09-27T01:41:31.431Z,8.15
2022-09-27T01:44:06.029Z,8.15
2022-09-27T01:46:41.470Z,7.55
2022-09-27T01:49:16.918Z,11.55
2022-09-27T01:51:53.836Z,9.73
2022-09-27T01:54:30.313Z,9.40
2022-09-27T01:57:01.418Z,9.02
2022-09-27T01:59:37.838Z,8.48
2022-09-27T02:02:13.574Z,8.10
2022-09-27T02:04:44.575Z,8.20
2022-09-27T02:07:20.587Z,8.93
2022-09-27T02:09:55.899Z,8.75
2022-09-27T02:12:32.612Z,8.77
2022-09-27T02:15:08.771Z,9.10
2022-09-27T02:17:46.434Z,8.57
2022-09-27T02:20:24.855Z,9.40
2022-09-27T02:23:01.209Z,9.15
2022-09-27T02:25:41.589Z,9.20
2022-09-27T02:28:24.505Z,7.82
2022-09-27T02:30:54.049Z,9.32
2022-09-27T02:33:30.406Z,10.25
2022-09-27T02:35:59.731Z,7.05
2022-09-27T02:38:29.197Z,7.82
2022-09-27T02:40:58.729Z,8.02
2022-09-27T02:43:34.355Z,8.65
2022-09-27T02:46:22.940Z,8.65
2022-09-27T02:49:06.192Z,7.95
2022-09-27T02:51:49.308Z,7.95
2022-09-27T02:54:27.809Z,8.70
2022-09-27T02:57:13.852Z,8.40
2022-09-27T02:59:55.671Z,7.40
2022-09-27T03:02:37.498Z,8.60
2022-09-27T03:05:14.996Z,8.43
2022-09-27T03:07:44.737Z,7.40
2022-09-27T03:10:20.683Z,7.82
2022-09-27T03:12:50.527Z,8.43
2022-09-27T03:15:20.262Z,7.22
2022-09-27T03:17:49.947Z,9.60
2022-09-27T03:20:20.706Z,8.10
2022-09-27T03:22:50.106Z,6.97
2022-09-27T03:25:20.264Z,7.75
2022-09-27T03:27:51.384Z,9.13
2022-09-27T03:30:20.815Z,7.40
2022-09-27T03:32:50.262Z,8.35
2022-09-27T03:35:21.158Z,8.30
2022-09-27T03:37:50.644Z,7.82
2022-09-27T03:40:20.213Z,8.07
2022-09-27T03:42:51.294Z,8.10
2022-09-27T03:45:20.963Z,9.85
2022-09-27T03:47:50.410Z,9.43
2022-09-27T03:52:54.747Z,11.07
2022-09-27T03:55:24.221Z,11.68
2022-09-27T03:57:53.789Z,10.68
2022-09-27T04:00:24.770Z,8.90
2022-09-27T04:02:54.249Z,8.40
2022-09-27T04:05:24.173Z,10.95
2022-09-27T04:07:55.153Z,11.20
2022-09-27T04:10:24.570Z,13.43
2022-09-27T04:12:54.072Z,12.23
2022-09-27T04:15:23.317Z,13.77
2022-09-27T04:17:53.150Z,10.57
2022-09-27T04:20:23.697Z,13.45
2022-09-27T04:22:54.632Z,11.85
2022-09-27T04:25:23.975Z,18.65
2022-09-27T04:27:55.587Z,20.10
2022-09-27T04:30:26.680Z,15.40
2022-09-27T04:32:57.771Z,14.30
2022-09-27T04:35:44.550Z,17.45
2022-09-27T04:38:15.724Z,20.33
2022-09-27T04:40:45.220Z,20.63
2022-09-27T04:43:14.789Z,16.08
2022-09-27T04:45:45.956Z,15.00
2022-09-27T04:48:15.412Z,17.08
2022-09-27T04:50:44.750Z,18.85
2022-09-27T04:53:17.725Z,17.08
2022-09-27T04:55:49.129Z,12.85
2022-09-27T04:58:18.701Z,13.10
2022-09-27T05:00:50.390Z,15.95
2022-09-27T05:03:20.339Z,11.67
2022-09-27T05:05:49.948Z,14.05
2022-09-27T05:08:21.215Z,17.50
2022-09-27T05:10:50.931Z,15.63
2022-09-27T05:13:20.350Z,14.43
2022-09-27T05:15:49.814Z,13.30
2022-09-27T05:18:19.417Z,14.70
2022-09-27T05:20:49.273Z,12.40
2022-09-27T05:23:20.578Z,11.20
2022-09-27T05:25:49.904Z,13.40
2022-09-27T05:28:19.222Z,11.85
2022-09-27T05:30:48.620Z,11.88
2022-09-27T05:33:18.151Z,11.20
2022-09-27T05:35:54.839Z,14.52
2022-09-27T05:38:26.628Z,12.13
2022-09-27T05:40:56.134Z,10.57
2022-09-27T05:43:25.687Z,9.82
2022-09-27T05:45:55.077Z,9.80
2022-09-27T05:48:24.486Z,11.55
2022-09-27T05:50:53.726Z,9.50
2022-09-27T05:53:26.114Z,11.63
2022-09-27T05:58:25.754Z,10.60
2022-09-27T06:00:55.108Z,11.57
2022-09-27T06:03:24.551Z,13.23
2022-09-27T06:05:54.236Z,12.52
2022-09-27T06:08:24.998Z,10.68
2022-09-27T06:11:04.625Z,12.02
2022-09-27T06:13:34.998Z,15.43
2022-09-27T06:16:05.434Z,17.83
2022-09-27T06:18:35.050Z,16.85
2022-09-27T06:21:05.903Z,16.20
2022-09-27T06:23:36.797Z,15.55
2022-09-27T06:26:08.186Z,18.52
2022-09-27T06:28:37.648Z,19.35
2022-09-27T06:31:09.624Z,17.92
2022-09-27T06:33:39.129Z,14.77
2022-09-27T06:36:10.144Z,14.40
2022-09-27T06:38:41.290Z,15.75
2022-09-27T06:41:10.579Z,15.25
2022-09-27T06:43:39.888Z,15.15
2022-09-27T06:46:09.300Z,11.68
2022-09-27T06:48:39.451Z,9.25
2022-09-27T06:52:53.350Z,10.70
2022-09-27T06:55:22.831Z,10.88
2022-09-27T06:58:13.670Z,12.98
2022-09-27T07:00:43.562Z,11.40
2022-09-27T07:03:14.554Z,12.07
2022-09-27T07:05:44.609Z,12.15
2022-09-27T07:08:15.635Z,10.52
2022-09-27T07:10:46.169Z,11.98
2022-09-27T07:13:15.819Z,12.10
2022-09-27T07:15:45.519Z,10.70
2022-09-27T07:18:15.114Z,11.50
2022-09-27T07:20:44.488Z,12.77
2022-09-27T07:23:18.354Z,11.48
2022-09-27T07:25:47.859Z,12.05
2022-09-27T07:28:22.081Z,12.52
2022-09-27T07:30:56.145Z,16.17
2022-09-27T07:33:27.134Z,9.05
2022-09-27T07:35:56.566Z,10.35
2022-09-27T07:38:27.748Z,12.18
2022-09-27T07:40:57.274Z,13.57
2022-09-27T07:43:26.806Z,12.43
2022-09-27T07:45:59.193Z,11.52
2022-09-27T07:48:28.589Z,12.65
2022-09-27T07:50:57.912Z,12.20
2022-09-27T07:53:28.747Z,11.93
2022-09-27T07:55:59.230Z,13.13
2022-09-27T07:58:29.860Z,12.43
2022-09-27T08:01:02.757Z,14.23
2022-09-27T08:03:32.686Z,11.45
2022-09-27T08:06:05.591Z,9.45
2022-09-27T08:08:36.431Z,11.18
2022-09-27T08:11:15.632Z,10.10
2022-09-27T08:13:45.266Z,8.05
2022-09-27T08:16:15.451Z,10.25
2022-09-27T08:18:44.824Z,9.60
2022-09-27T08:21:14.292Z,9.20
2022-09-27T08:23:45.178Z,8.63
2022-09-27T08:26:14.747Z,8.30
2022-09-27T08:28:44.330Z,8.40
2022-09-27T08:31:13.726Z,9.00
2022-09-27T08:33:43.150Z,8.18
2022-09-27T08:36:15.970Z,7.43
2022-09-27T08:38:47.092Z,8.38
2022-09-27T08:41:29.629Z,8.50
2022-09-27T08:46:55.657Z,6.72
2022-09-27T08:49:30.726Z,11.15
2022-09-27T08:52:02.354Z,13.77
2022-09-27T08:54:35.031Z,11.10
2022-09-27T08:57:08.190Z,6.72
2022-09-27T08:59:43.772Z,8.15
2022-09-27T09:02:20.878Z,8.35
2022-09-27T09:04:54.989Z,9.50
2022-09-27T09:07:49.450Z,6.50
2022-09-27T09:10:53.508Z,7.90
2022-09-27T09:13:58.869Z,6.53
2022-09-27T09:16:41.765Z,6.68
2022-09-27T09:19:32.675Z,7.88
2022-09-27T09:22:15.893Z,5.80
2022-09-27T09:25:01.783Z,5.30
2022-09-27T09:27:42.633Z,5.15
2022-09-27T09:30:26.369Z,7.90
2022-09-27T09:33:24.434Z,6.43
2022-09-27T09:36:01.674Z,5.40
2022-09-27T09:38:40.616Z,5.45
2022-09-27T09:41:18.290Z,7.80
2022-09-27T09:43:55.697Z,5.72
2022-09-27T09:46:30.255Z,4.30
2022-09-27T09:49:04.931Z,4.50
2022-09-27T09:53:00.676Z,4.82
2022-09-27T09:55:36.705Z,3.35
2022-09-27T09:58:23.257Z,5.10
2022-09-27T10:00:56.572Z,2.90
2022-09-27T10:03:25.989Z,3.60
2022-09-27T10:05:55.301Z,4.38
2022-09-27T10:08:26.517Z,4.90
2022-09-27T10:10:55.809Z,4.53
2022-09-27T10:13:25.439Z,5.20
2022-09-27T10:16:03.279Z,4.28
2022-09-27T10:18:34.582Z,4.20
2022-09-27T10:21:09.190Z,3.47
2022-09-27T10:24:17.317Z,3.95
2022-09-27T10:26:51.269Z,4.43
2022-09-27T10:29:36.985Z,8.88
2022-09-27T10:32:23.170Z,4.00
2022-09-27T10:34:52.638Z,3.53
2022-09-27T10:37:24.849Z,7.25
2022-09-27T10:39:55.512Z,3.67
2022-09-27T10:42:36.557Z,5.35
2022-09-27T10:45:31.009Z,5.07
2022-09-27T10:48:02.606Z,4.43
2022-09-27T10:50:50.279Z,3.38
2022-09-27T10:53:24.510Z,7.45
2022-09-27T10:55:55.747Z,4.50
2022-09-27T10:58:31.057Z,11.07
2022-09-27T11:01:03.706Z,4.18
2022-09-27T11:03:35.411Z,7.07
2022-09-27T11:06:29.150Z,3.30
2022-09-27T11:09:19.037Z,4.32
2022-09-27T11:11:50.955Z,5.05
2022-09-27T11:14:23.587Z,3.25
2022-09-27T11:17:23.811Z,5.20
2022-09-27T11:20:27.009Z,3.67
2022-09-27T11:23:19.188Z,3.75
2022-09-27T11:26:05.629Z,4.40
2022-09-27T11:28:54.075Z,4.35
2022-09-27T11:31:38.129Z,3.85
2022-09-27T11:34:28.700Z,6.15
2022-09-27T11:37:18.289Z,3.33
2022-09-27T11:40:15.264Z,3.30
2022-09-27T11:43:11.973Z,4.68
2022-09-27T11:46:15.323Z,4.88
2022-09-27T11:49:20.487Z,3.38
2022-09-27T11:52:07.799Z,2.80
2022-09-27T11:55:04.115Z,2.67
2022-09-27T11:57:40.206Z,2.97
2022-09-27T12:00:24.099Z,3.78
2022-09-27T12:03:50.753Z,4.40
2022-09-27T12:06:25.122Z,3.08
2022-09-27T12:09:08.238Z,4.97
2022-09-27T12:11:43.231Z,4.30
2022-09-27T12:14:26.725Z,3.40
2022-09-27T12:16:58.662Z,4.03
2022-09-27T12:19:35.631Z,3.60
2022-09-27T12:22:08.438Z,5.05
2022-09-27T12:24:38.048Z,3.88
2022-09-27T12:27:15.150Z,4.82
2022-09-27T12:29:47.112Z,2.65
2022-09-27T12:35:01.849Z,3.08
2022-09-27T12:37:36.906Z,3.72
2022-09-27T12:40:14.980Z,3.47
2022-09-27T12:42:51.909Z,2.70
2022-09-27T12:45:34.371Z,5.13
2022-09-27T12:48:13.377Z,2.80
2022-09-27T12:52:57.631Z,3.40
2022-09-27T12:56:07.204Z,4.20
2022-09-27T12:59:06.798Z,2.88
2022-09-27T13:01:54.072Z,3.25
2022-09-27T13:05:03.357Z,5.32
2022-09-27T13:07:52.816Z,3.58
2022-09-27T13:10:53.707Z,2.97
2022-09-27T13:13:26.842Z,5.20
2022-09-27T13:16:01.741Z,4.43
2022-09-27T13:18:51.689Z,3.33
2022-09-27T13:21:59.811Z,3.88
2022-09-27T13:24:48.690Z,2.88
2022-09-27T13:27:42.639Z,2.70
2022-09-27T13:30:51.053Z,4.72
2022-09-27T13:33:52.614Z,4.15
2022-09-27T13:36:34.083Z,3.22
2022-09-27T13:39:22.611Z,3.80
2022-09-27T13:42:19.297Z,4.40
2022-09-27T13:45:06.760Z,3.40
2022-09-27T13:47:41.543Z,3.97
2022-09-27T13:50:25.210Z,3.15
2022-09-27T13:53:08.358Z,4.78
2022-09-27T13:55:46.255Z,4.85
2022-09-27T13:58:42.978Z,3.53
2022-09-27T14:01:28.654Z,3.20
2022-09-27T14:04:03.147Z,4.53
2022-09-27T14:06:37.351Z,3.38
2022-09-27T14:09:09.766Z,3.63
2022-09-27T14:11:44.193Z,5.65
2022-09-27T14:14:23.908Z,3.80
2022-09-27T14:16:54.495Z,4.22
2022-09-27T14:19:27.018Z,4.43
2022-09-27T14:21:57.574Z,4.55
2022-09-27T14:24:31.405Z,4.47
2022-09-27T14:27:19.585Z,8.90
2022-09-27T14:29:54.279Z,8.75
2022-09-27T14:32:26.333Z,10.20
2022-09-27T14:35:34.268Z,10.07
2022-09-27T14:38:26.522Z,9.38
2022-09-27T14:41:02.553Z,6.78
2022-09-27T14:43:33.450Z,10.40
2022-09-27T14:46:07.631Z,10.32
2022-09-27T14:48:40.337Z,6.78
2022-09-27T14:51:23.035Z,5.70
2022-09-27T14:53:57.311Z,7.13
2022-09-27T14:56:30.587Z,6.90
2022-09-27T14:59:06.676Z,7.45
2022-09-27T15:01:39.658Z,6.85
2022-09-27T15:04:16.127Z,7.85
2022-09-27T15:06:46.050Z,7.75
2022-09-27T15:09:17.571Z,7.53
2022-09-27T15:11:51.742Z,6.55
2022-09-27T15:14:24.024Z,7.70
2022-09-27T15:16:55.366Z,6.78
2022-09-27T15:19:29.226Z,7.72
2022-09-27T15:22:00.955Z,8.18
2022-09-27T15:24:42.071Z,7.93
2022-09-27T15:27:19.688Z,7.30
2022-09-27T15:29:53.205Z,7.65
2022-09-27T15:32:26.260Z,6.28
2022-09-27T15:34:58.269Z,8.43
2022-09-27T15:37:35.568Z,8.32
2022-09-27T15:41:00.259Z,6.88
2022-09-27T15:43:32.909Z,8.57
2022-09-27T15:46:04.784Z,10.05
2022-09-27T15:48:37.900Z,10.15
2022-09-27T15:52:56.229Z,8.88
2022-09-27T15:55:28.313Z,8.38
2022-09-27T15:58:02.247Z,11.48
2022-09-27T16:00:32.454Z,10.13
2022-09-27T16:03:01.794Z,8.13
2022-09-27T16:05:33.439Z,7.68
2022-09-27T16:08:04.510Z,9.15
2022-09-27T16:10:41.453Z,7.05
2022-09-27T16:13:10.707Z,8.02
2022-09-27T16:15:40.445Z,9.70
2022-09-27T16:18:10.398Z,7.57
2022-09-27T16:20:40.247Z,7.82
2022-09-27T16:23:11.159Z,6.70
2022-09-27T16:25:40.713Z,7.28
2022-09-27T16:28:11.630Z,6.65
2022-09-27T16:30:41.134Z,7.63
2022-09-27T16:33:10.687Z,7.22
2022-09-27T16:35:42.550Z,6.60
2022-09-27T16:38:13.473Z,7.45
2022-09-27T16:40:42.878Z,6.63
2022-09-27T16:43:12.391Z,5.82
2022-09-27T16:45:41.889Z,6.68
2022-09-27T16:48:11.432Z,6.13
2022-09-27T16:50:58.338Z,8.38
2022-09-27T16:53:29.554Z,5.70
2022-09-27T16:56:02.314Z,6.43
2022-09-27T16:58:32.097Z,6.05
2022-09-27T17:01:01.657Z,4.88
2022-09-27T17:03:31.567Z,6.25
2022-09-27T17:06:04.500Z,7.00
2022-09-27T17:08:36.292Z,8.48
2022-09-27T17:11:06.653Z,8.75
2022-09-27T17:13:36.048Z,6.80
2022-09-27T17:16:08.847Z,7.93
2022-09-27T17:18:39.032Z,7.35
2022-09-27T17:21:10.410Z,6.38
2022-09-27T17:23:41.469Z,7.57
2022-09-27T17:26:21.416Z,9.48
2022-09-27T17:28:53.333Z,7.78
2022-09-27T17:31:22.895Z,7.43
2022-09-27T17:33:57.872Z,8.20
2022-09-27T17:36:31.247Z,8.27
2022-09-27T17:39:02.114Z,8.23
2022-09-27T17:41:39.583Z,9.50
2022-09-27T17:44:11.451Z,9.10
2022-09-27T17:46:40.988Z,7.37
2022-09-27T17:49:44.129Z,7.85
2022-09-27T17:52:13.569Z,11.45
2022-09-27T17:54:44.605Z,16.55
2022-09-27T17:57:13.967Z,11.73
2022-09-27T17:59:44.117Z,10.95
2022-09-27T18:02:13.728Z,8.65
2022-09-27T18:04:43.069Z,9.73
2022-09-27T18:07:13.247Z,8.77
2022-09-27T18:09:44.208Z,8.43
2022-09-27T18:12:13.949Z,8.70
2022-09-27T18:14:43.311Z,10.30
2022-09-27T18:17:13.464Z,10.30
2022-09-27T18:19:42.909Z,10.95
2022-09-27T18:22:12.248Z,8.07
2022-09-27T18:24:43.091Z,9.07
2022-09-27T18:27:16.350Z,8.48
2022-09-27T18:29:45.635Z,7.93
2022-09-27T18:32:15.148Z,9.15
2022-09-27T18:34:44.503Z,7.78
2022-09-27T18:37:13.858Z,6.50
2022-09-27T18:39:44.743Z,5.65
2022-09-27T18:42:14.210Z,6.13
2022-09-27T18:44:44.071Z,5.72
2022-09-27T18:47:13.544Z,6.65
2022-09-27T18:52:54.757Z,3.08
2022-09-27T18:55:25.504Z,2.83
2022-09-27T18:57:55.819Z,2.95
2022-09-27T19:00:25.955Z,1.95
2022-09-27T19:02:55.322Z,3.20
2022-09-27T19:05:24.811Z,2.05
2022-09-27T19:07:55.473Z,3.78
2022-09-27T19:10:24.903Z,5.60
2022-09-27T19:12:57.077Z,8.80
2022-09-27T19:15:26.892Z,3.00
2022-09-27T19:17:56.589Z,3.90
2022-09-27T19:20:26.085Z,2.72
2022-09-27T19:22:56.966Z,2.38
2022-09-27T19:25:26.471Z,3.75
2022-09-27T19:27:55.901Z,5.95
2022-09-27T19:30:25.306Z,2.88
2022-09-27T19:32:54.674Z,1.60
2022-09-27T19:35:24.045Z,4.63
2022-09-27T19:37:53.418Z,2.80
2022-09-27T19:40:24.199Z,1.85
2022-09-27T19:42:54.491Z,2.22
2022-09-27T19:45:24.211Z,3.75
2022-09-27T19:47:54.969Z,2.55
2022-09-27T19:50:24.616Z,1.50
2022-09-27T19:52:54.095Z,3.72
2022-09-27T19:55:25.041Z,2.10
2022-09-27T19:57:54.477Z,3.45
2022-09-27T20:00:24.093Z,2.92
2022-09-27T20:02:53.660Z,3.33
2022-09-27T20:05:23.111Z,2.78
2022-09-27T20:07:54.102Z,3.40
2022-09-27T20:10:24.890Z,3.75
2022-09-27T20:12:54.950Z,4.20
2022-09-27T20:15:24.505Z,4.50
2022-09-27T20:17:54.050Z,4.00
2022-09-27T20:20:23.570Z,4.00
2022-09-27T20:22:52.978Z,3.03
2022-09-27T20:25:23.835Z,4.63
2022-09-27T20:27:53.221Z,6.15
2022-09-27T20:30:22.569Z,4.13
2022-09-27T20:33:08.865Z,3.38
2022-09-27T20:35:38.319Z,4.68
2022-09-27T20:38:07.687Z,5.93
2022-09-27T20:40:38.659Z,3.65
2022-09-27T20:43:08.132Z,5.03
2022-09-27T20:45:38.195Z,7.03
2022-09-27T20:48:07.691Z,3.72
2022-09-27T20:50:36.998Z,3.30
2022-09-27T20:53:06.751Z,2.55
2022-09-27T20:55:37.667Z,5.47
2022-09-27T20:58:07.249Z,2.70
2022-09-27T21:00:37.738Z,2.88
2022-09-27T21:03:07.175Z,4.22
2022-09-27T21:05:36.602Z,7.90
2022-09-27T21:08:06.037Z,4.63
2022-09-27T21:10:35.562Z,6.85
2022-09-27T21:13:06.365Z,4.40
2022-09-27T21:15:36.153Z,7.55
2022-09-27T21:18:06.234Z,2.42
2022-09-27T21:20:35.785Z,3.42
2022-09-27T21:23:05.321Z,2.30
2022-09-27T21:25:34.676Z,7.50
2022-09-27T21:28:06.120Z,1.90
2022-09-27T21:30:38.392Z,4.10
2022-09-27T21:33:08.425Z,3.80
2022-09-27T21:35:37.769Z,3.38
2022-09-27T21:38:07.207Z,5.85
2022-09-27T21:40:36.671Z,2.42
2022-09-27T21:43:07.926Z,2.70
2022-09-27T21:45:37.357Z,2.90
2022-09-27T21:48:06.813Z,3.80
2022-09-27T21:52:57.921Z,7.35
2022-09-27T21:55:29.163Z,3.45
2022-09-27T21:57:58.630Z,2.75
2022-09-27T22:00:28.077Z,6.47
2022-09-27T22:02:59.692Z,2.42
2022-09-27T22:05:29.208Z,4.03
2022-09-27T22:08:00.024Z,3.95
2022-09-27T22:10:29.878Z,10.52
2022-09-27T22:12:59.276Z,4.10
2022-09-27T22:15:28.717Z,5.30
2022-09-27T22:17:58.133Z,5.82
2022-09-27T22:20:28.048Z,5.28
2022-09-27T22:22:59.363Z,7.65
2022-09-27T22:25:31.410Z,5.22
2022-09-27T22:28:00.895Z,4.20
2022-09-27T22:30:30.492Z,3.85
2022-09-27T22:33:00.149Z,5.70
2022-09-27T22:35:29.767Z,7.63
2022-09-27T22:38:00.772Z,5.20
2022-09-27T22:40:30.732Z,5.88
2022-09-27T22:43:00.333Z,2.25
2022-09-27T22:45:29.838Z,2.28
2022-09-27T22:47:59.101Z,3.70
2022-09-27T22:50:28.508Z,4.93
2022-09-27T22:52:59.485Z,4.82
2022-09-27T22:55:28.849Z,2.75
2022-09-27T22:57:58.174Z,5.65
2022-09-27T23:00:27.912Z,2.72
2022-09-27T23:02:58.119Z,7.20
2022-09-27T23:06:42.982Z,5.32
2022-09-27T23:09:13.109Z,3.80
2022-09-27T23:11:42.593Z,5.63
2022-09-27T23:14:15.236Z,5.80
2022-09-27T23:16:44.667Z,5.25
2022-09-27T23:19:15.360Z,5.80
2022-09-27T23:21:46.281Z,4.47
2022-09-27T23:24:15.739Z,1.95
2022-09-27T23:26:45.136Z,2.85
2022-09-27T23:29:14.550Z,2.63
2022-09-27T23:31:44.008Z,3.50
2022-09-27T23:34:15.592Z,3.53
2022-09-27T23:36:46.417Z,3.22
2022-09-27T23:39:16.099Z,2.58
2022-09-27T23:41:45.508Z,2.22
2022-09-27T23:44:15.698Z,4.03
2022-09-27T23:46:45.440Z,4.05
2022-09-27T23:49:15.387Z,2.10
2022-09-27T23:51:46.160Z,2.70
2022-09-27T23:54:15.589Z,2.75
2022-09-27T23:56:44.939Z,1.90
2022-09-27T23:59:14.501Z,4.15
